Time;durP1;ratioP1;P1;durP2;ratioP2;P2;SDS_P1;SDS_P2;PMS_P1;PMS_P2;Temp;Humidity;BMP_temperature;BMP_pressure;BME280_temperature;BME280_humidity;BME280_pressure;Samples;Min_cycle;Max_cycle;Signal;HPM_P1;HPM_P2
2022/02/18 00:01:46;;;;;;;24.25;5.32;;;;;;;8.80;64.45;98658.84;2618286;54;20071;-64
2022/02/18 00:04:15;;;;;;;25.58;5.35;;;;;;;8.83;64.37;98663.75;2618323;54;20139;-63
2022/02/18 00:06:45;;;;;;;28.67;5.03;;;;;;;8.82;64.49;98693.75;2617866;54;20037;-66
2022/02/18 00:09:14;;;;;;;25.95;5.28;;;;;;;8.85;64.07;98698.63;2621795;54;20033;-63
2022/02/18 00:11:44;;;;;;;26.40;5.57;;;;;;;8.86;64.29;98692.38;2623246;54;20541;-62
2022/02/18 00:14:16;;;;;;;36.35;6.25;;;;;;;8.87;63.72;98704.56;2623107;54;20593;-63
2022/02/18 00:16:46;;;;;;;22.08;5.22;;;;;;;8.84;64.03;98689.09;2619296;54;20064;-62
2022/02/18 00:19:16;;;;;;;22.02;4.93;;;;;;;8.88;63.82;98693.00;2618200;54;20031;-62
2022/02/18 00:21:46;;;;;;;21.75;5.32;;;;;;;8.87;63.83;98688.72;2618334;54;20038;-64
2022/02/18 00:24:16;;;;;;;25.20;5.18;;;;;;;8.90;63.86;98687.56;2618025;54;20604;-62
2022/02/18 00:26:46;;;;;;;26.75;5.75;;;;;;;8.94;63.95;98680.91;2618084;54;20038;-64
2022/02/18 00:29:18;;;;;;;26.42;5.90;;;;;;;8.95;63.95;98669.34;2617637;54;20609;-65
2022/02/18 00:31:48;;;;;;;20.73;4.85;;;;;;;8.98;63.50;98684.81;2617458;47;20038;-63
2022/02/18 00:34:20;;;;;;;22.95;5.13;;;;;;;8.92;63.90;98673.16;2617757;54;20041;-65
2022/02/18 00:36:49;;;;;;;25.85;5.60;;;;;;;8.97;63.50;98684.97;2618506;54;20038;-63
2022/02/18 00:39:19;;;;;;;26.38;5.40;;;;;;;8.94;64.13;98688.81;2618238;54;20045;-63
2022/02/18 00:41:51;;;;;;;22.33;6.13;;;;;;;9.00;63.89;98684.63;2617587;51;20026;-62
2022/02/18 00:44:24;;;;;;;25.92;5.30;;;;;;;9.02;63.89;98682.59;2617543;47;20027;-63
2022/02/18 00:46:55;;;;;;;27.02;5.45;;;;;;;9.03;63.91;98676.34;2617311;54;20034;-63
2022/02/18 00:49:25;;;;;;;27.15;6.20;;;;;;;9.02;63.60;98678.16;2618199;54;20034;-63
2022/02/18 00:51:54;;;;;;;25.92;5.00;;;;;;;8.96;63.66;98678.09;2618195;54;20061;-65
2022/02/18 00:54:24;;;;;;;24.50;5.80;;;;;;;8.93;63.90;98666.06;2618229;54;20057;-63
2022/02/18 00:56:54;;;;;;;26.17;5.30;;;;;;;8.92;64.05;98675.81;2618180;54;20541;-62
2022/02/18 00:59:26;;;;;;;22.23;6.15;;;;;;;8.90;63.95;98677.81;2617851;47;20026;-63
2022/02/18 01:01:56;;;;;;;39.42;6.72;;;;;;;8.90;64.01;98683.09;2617883;54;20022;-62
2022/02/18 01:04:25;;;;;;;26.05;5.68;;;;;;;8.90;64.21;98677.81;2617983;54;20037;-62
2022/02/18 01:06:55;;;;;;;28.05;5.13;;;;;;;8.88;64.49;98679.00;2617947;54;20026;-63
2022/02/18 01:09:25;;;;;;;30.88;6.90;;;;;;;8.88;64.76;98685.09;2617505;54;20062;-66
2022/02/18 01:11:55;;;;;;;31.52;6.60;;;;;;;8.90;64.14;98684.94;2617277;54;20046;-64
2022/02/18 01:14:28;;;;;;;21.70;5.10;;;;;;;8.89;64.63;98694.63;2617353;54;20034;-62
2022/02/18 01:16:57;;;;;;;28.10;6.23;;;;;;;8.88;64.54;98695.63;2618888;54;20095;-63
2022/02/18 01:19:27;;;;;;;22.70;4.90;;;;;;;8.87;64.44;98682.66;2618681;54;20407;-65
2022/02/18 01:22:05;;;;;;;24.52;5.30;;;;;;;8.83;64.43;98668.19;2618208;54;20023;-62
2022/02/18 01:24:35;;;;;;;22.70;5.63;;;;;;;8.82;64.41;98677.13;2618791;54;20030;-62
2022/02/18 01:27:05;;;;;;;30.70;6.57;;;;;;;8.78;64.72;98676.66;2619689;54;20027;-63
2022/02/18 01:29:39;;;;;;;26.15;5.68;;;;;;;8.74;64.87;98685.94;2620389;39;20437;-63
2022/02/18 01:32:10;;;;;;;24.92;5.40;;;;;;;8.77;64.94;98690.00;2618178;54;20023;-62
2022/02/18 01:34:40;;;;;;;28.50;6.13;;;;;;;8.78;65.03;98683.75;2618191;54;20551;-65
2022/02/18 01:37:11;;;;;;;26.10;5.43;;;;;;;8.73;64.81;98671.09;2618381;47;20031;-65
2022/02/18 01:39:40;;;;;;;24.42;5.57;;;;;;;8.75;64.80;98663.03;2618409;47;20042;-62
2022/02/18 01:42:10;;;;;;;27.40;7.07;;;;;;;8.75;64.67;98658.56;2618183;54;20034;-64
2022/02/18 01:44:45;;;;;;;22.58;4.78;;;;;;;8.68;64.43;98660.31;2618811;54;20030;-63
2022/02/18 01:47:21;;;;;;;24.98;5.32;;;;;;;8.62;64.80;98651.31;2618093;54;20027;-62
2022/02/18 01:49:53;;;;;;;30.13;5.82;;;;;;;8.63;64.92;98646.88;2618046;47;20038;-62
2022/02/18 01:52:27;;;;;;;27.38;5.88;;;;;;;8.64;64.92;98651.13;2618074;47;20035;-62
2022/02/18 01:54:57;;;;;;;25.98;5.25;;;;;;;8.62;64.85;98638.16;2618196;54;20045;-63
2022/02/18 01:57:28;;;;;;;18.02;5.90;;;;;;;8.63;64.76;98641.59;2618708;54;20031;-62
2022/02/18 02:00:01;;;;;;;23.63;4.78;;;;;;;8.59;65.07;98646.41;2618267;47;20027;-63
2022/02/18 02:02:43;;;;;;;25.45;5.63;;;;;;;8.64;64.83;98648.50;2618672;54;20062;-62
2022/02/18 02:05:14;;;;;;;32.97;6.45;;;;;;;8.60;64.84;98642.78;2617761;50;20026;-63
2022/02/18 02:07:46;;;;;;;25.23;4.57;;;;;;;8.63;65.18;98638.97;2617424;47;20062;-66
2022/02/18 02:10:18;;;;;;;23.17;4.88;;;;;;;8.66;65.00;98631.50;2617537;54;20581;-63
2022/02/18 02:12:50;;;;;;;25.20;5.55;;;;;;;8.64;64.93;98622.97;2618327;54;20026;-63
2022/02/18 02:15:41;;;;;;;18.33;4.38;;;;;;;8.68;65.04;98624.22;2618050;54;20030;-63
2022/02/18 02:18:18;;;;;;;27.08;5.75;;;;;;;8.66;64.64;98628.88;2618386;39;20452;-63
2022/02/18 02:20:48;;;;;;;30.85;5.68;;;;;;;8.64;64.73;98622.97;2617833;54;20744;-63
2022/02/18 02:23:20;;;;;;;23.73;5.45;;;;;;;8.64;64.69;98617.69;2618583;54;20041;-61
2022/02/18 02:25:51;;;;;;;28.92;5.88;;;;;;;8.61;64.98;98610.19;2618000;47;20022;-61
2022/02/18 02:28:28;;;;;;;23.08;5.53;;;;;;;8.62;64.68;98614.44;2617977;54;20038;-63
2022/02/18 02:30:58;;;;;;;23.60;5.22;;;;;;;8.59;64.50;98627.97;2618829;54;20037;-62
2022/02/18 02:33:27;;;;;;;18.17;4.55;;;;;;;8.60;64.61;98611.16;2618040;54;20026;-62
2022/02/18 02:35:59;;;;;;;25.48;5.30;;;;;;;8.57;64.35;98608.91;2617835;46;20026;-62
2022/02/18 02:38:31;;;;;;;19.10;4.97;;;;;;;8.55;64.98;98602.19;2618943;31;20525;-61
2022/02/18 02:41:01;;;;;;;21.13;4.60;;;;;;;8.57;64.87;98589.63;2618162;54;20030;-62
2022/02/18 02:43:32;;;;;;;31.95;5.50;;;;;;;8.55;64.64;98589.00;2618042;47;20031;-62
2022/02/18 02:46:02;;;;;;;17.95;5.43;;;;;;;8.54;64.87;98584.75;2618156;49;20041;-63
2022/02/18 02:48:32;;;;;;;25.42;5.20;;;;;;;8.53;64.89;98567.28;2617769;54;20076;-65
2022/02/18 02:51:13;;;;;;;28.00;6.55;;;;;;;8.56;64.52;98569.56;2618188;54;20065;-62
2022/02/18 02:53:45;;;;;;;23.90;5.10;;;;;;;8.54;65.07;98572.38;2618050;47;20034;-62
2022/02/18 02:56:16;;;;;;;22.48;4.93;;;;;;;8.54;64.54;98566.31;2617916;46;20022;-62
2022/02/18 02:58:46;;;;;;;20.92;4.50;;;;;;;8.56;64.76;98566.91;2618107;54;20030;-66
2022/02/18 03:01:20;;;;;;;26.15;5.60;;;;;;;8.57;64.52;98560.63;2618010;54;20030;-65
2022/02/18 03:03:51;;;;;;;23.75;4.97;;;;;;;8.56;64.70;98566.91;2617687;54;20022;-62
2022/02/18 03:06:22;;;;;;;22.85;4.97;;;;;;;8.59;64.65;98563.91;2617851;51;20030;-64
2022/02/18 03:08:57;;;;;;;21.48;5.18;;;;;;;8.55;64.79;98562.66;2618126;47;20039;-64
2022/02/18 03:11:38;;;;;;;25.60;4.88;;;;;;;8.54;65.15;98556.56;2617948;47;20537;-61
2022/02/18 03:14:25;;;;;;;27.73;5.28;;;;;;;8.52;64.65;98549.84;2619707;47;20032;-63
2022/02/18 03:17:04;;;;;;;30.02;6.18;;;;;;;8.56;64.72;98551.13;2622140;54;20038;-62
2022/02/18 03:19:34;;;;;;;23.45;5.22;;;;;;;8.56;65.08;98530.84;2622000;47;20070;-63
2022/02/18 03:22:06;;;;;;;26.70;6.13;;;;;;;8.55;64.64;98529.22;2622939;54;20030;-63
2022/02/18 03:24:40;;;;;;;23.40;6.05;;;;;;;8.58;64.77;98522.78;2622421;54;20030;-61
2022/02/18 03:27:09;;;;;;;22.90;5.90;;;;;;;8.59;64.76;98516.50;2622699;54;20054;-66
2022/02/18 03:29:43;;;;;;;21.47;5.57;;;;;;;8.63;64.75;98515.94;2622322;54;20025;-63
2022/02/18 03:32:19;;;;;;;23.40;5.32;;;;;;;8.65;64.90;98523.63;2622324;54;20031;-66
2022/02/18 03:34:49;;;;;;;21.58;5.32;;;;;;;8.64;64.95;98517.56;2622182;47;20036;-63
2022/02/18 03:37:26;;;;;;;25.02;5.75;;;;;;;8.63;64.64;98502.75;2622466;54;20569;-63
2022/02/18 03:40:03;;;;;;;21.80;5.32;;;;;;;8.62;64.56;98489.78;2622748;47;20031;-62
2022/02/18 03:42:33;;;;;;;20.15;6.07;;;;;;;8.62;64.99;98489.78;2621234;54;20023;-62
2022/02/18 03:45:03;;;;;;;21.67;5.07;;;;;;;8.64;64.97;98490.38;2618521;54;20034;-62
2022/02/18 03:47:33;;;;;;;24.88;5.35;;;;;;;8.63;64.66;98492.22;2619614;47;20030;-63
2022/02/18 03:50:05;;;;;;;28.23;5.65;;;;;;;8.64;64.86;98491.22;2619993;39;20409;-62
2022/02/18 03:52:35;;;;;;;22.17;5.40;;;;;;;8.60;64.68;98499.69;2619585;31;20533;-62
2022/02/18 03:55:08;;;;;;;22.60;4.90;;;;;;;8.59;64.51;98495.41;2617632;54;20029;-61
2022/02/18 03:57:45;;;;;;;25.10;5.40;;;;;;;8.57;64.99;98489.50;2617804;47;20519;-61
2022/02/18 04:00:17;;;;;;;21.48;5.00;;;;;;;8.56;64.83;98499.22;2618379;47;20029;-60
2022/02/18 04:02:47;;;;;;;22.45;5.80;;;;;;;8.59;64.92;98500.69;2618668;54;20153;-63
2022/02/18 04:05:46;;;;;;;16.00;4.80;;;;;;;8.59;65.14;98487.50;2618550;54;20042;-61
2022/02/18 04:08:26;;;;;;;24.05;5.35;;;;;;;8.62;65.22;98473.97;2617676;54;20023;-63
2022/02/18 04:10:58;;;;;;;20.65;4.82;;;;;;;8.62;64.72;98474.78;2618307;39;20442;-63
2022/02/18 04:13:28;;;;;;;20.30;3.80;;;;;;;8.64;65.00;98471.94;2620794;39;20429;-63
2022/02/18 04:15:58;;;;;;;29.88;5.57;;;;;;;8.68;64.83;98466.09;2619887;54;20026;-62
2022/02/18 04:18:28;;;;;;;21.73;5.53;;;;;;;8.67;64.43;98453.13;2618361;54;20557;-62
2022/02/18 04:21:02;;;;;;;25.50;5.78;;;;;;;8.66;64.62;98451.50;2619035;54;20844;-62
2022/02/18 04:23:58;;;;;;;23.00;4.57;;;;;;;8.66;64.55;98444.41;2617869;54;20034;-62
2022/02/18 04:26:30;;;;;;;14.35;4.82;;;;;;;8.71;64.14;98440.41;2617856;54;20035;-64
2022/02/18 04:28:59;;;;;;;25.73;5.65;;;;;;;8.73;64.46;98431.28;2619715;31;20530;-63
2022/02/18 04:31:29;;;;;;;18.38;4.65;;;;;;;8.72;64.43;98429.66;2618809;54;20042;-66
2022/02/18 04:33:59;;;;;;;19.17;5.65;;;;;;;8.68;64.00;98410.78;2618693;54;20057;-63
2022/02/18 04:36:28;;;;;;;18.52;4.28;;;;;;;8.70;64.23;98407.16;2618823;54;20027;-63
2022/02/18 04:38:58;;;;;;;17.30;4.35;;;;;;;8.71;63.92;98408.78;2619061;39;20430;-63
2022/02/18 04:41:30;;;;;;;19.55;4.32;;;;;;;8.73;64.44;98393.56;2618830;54;20042;-64
2022/02/18 04:44:01;;;;;;;21.75;4.43;;;;;;;8.72;63.99;98382.22;2619830;39;20458;-61
2022/02/18 04:46:31;;;;;;;24.05;4.90;;;;;;;8.73;64.36;98381.22;2619457;54;20557;-61
2022/02/18 04:49:00;;;;;;;15.13;3.70;;;;;;;8.75;63.91;98383.66;2618695;47;20035;-62
2022/02/18 04:51:30;;;;;;;23.30;4.22;;;;;;;8.81;64.16;98375.78;2618377;47;20031;-62
2022/02/18 04:54:01;;;;;;;23.98;4.65;;;;;;;8.80;63.77;98366.28;2619405;54;20027;-62
2022/02/18 04:56:33;;;;;;;19.58;4.13;;;;;;;8.77;63.99;98366.66;2618740;54;20042;-62
2022/02/18 04:59:03;;;;;;;17.67;4.45;;;;;;;8.80;64.28;98368.09;2619439;54;20042;-62
2022/02/18 05:01:32;;;;;;;24.73;5.18;;;;;;;8.80;64.33;98358.34;2619548;39;20430;-64
2022/02/18 05:04:02;;;;;;;20.92;5.47;;;;;;;8.81;64.11;98356.53;2617941;54;20026;-62
2022/02/18 05:06:31;;;;;;;23.30;5.13;;;;;;;8.78;64.23;98347.22;2618194;54;20030;-62
2022/02/18 05:09:01;;;;;;;21.75;5.10;;;;;;;8.79;64.35;98350.66;2618274;54;20027;-62
2022/02/18 05:11:33;;;;;;;23.65;5.43;;;;;;;8.78;64.56;98347.22;2618081;54;20038;-62
2022/02/18 05:14:03;;;;;;;18.73;5.25;;;;;;;8.84;64.66;98337.72;2618008;54;20030;-61
2022/02/18 05:16:33;;;;;;;20.65;5.00;;;;;;;8.85;64.68;98341.97;2618120;54;20126;-63
2022/02/18 05:19:09;;;;;;;20.10;5.20;;;;;;;8.86;65.04;98343.63;2617895;51;20105;-65
2022/02/18 05:21:39;;;;;;;;;;;;;;;8.77;65.58;98340.28;2617448;54;20042;-64
2022/02/18 05:24:10;;;;;;;24.48;5.53;;;;;;;8.79;65.78;98326.94;2617519;54;19957;-65
2022/02/18 05:26:48;;;;;;;21.33;4.78;;;;;;;8.83;65.97;98333.44;2618346;39;20437;-64
2022/02/18 05:29:17;;;;;;;19.42;4.53;;;;;;;8.84;65.81;98321.91;2619345;39;20422;-64
2022/02/18 05:31:47;;;;;;;18.65;4.10;;;;;;;8.85;65.86;98316.41;2617119;54;20086;-64
2022/02/18 05:34:17;;;;;;;20.98;4.70;;;;;;;8.84;65.95;98309.53;2617828;54;20069;-65
2022/02/18 05:36:46;;;;;;;22.15;5.43;;;;;;;8.80;66.28;98305.66;2617067;54;20027;-64
2022/02/18 05:39:16;;;;;;;21.17;4.45;;;;;;;8.78;66.61;98297.13;2618100;54;20550;-64
2022/02/18 05:41:50;;;;;;;17.75;4.90;;;;;;;8.77;66.71;98284.94;2617260;54;20586;-66
2022/02/18 05:44:20;;;;;;;20.88;4.50;;;;;;;8.79;67.11;98271.59;2617975;54;20041;-64
2022/02/18 05:46:50;;;;;;;23.48;4.93;;;;;;;8.80;67.58;98268.75;2617314;54;20042;-64
2022/02/18 05:49:19;;;;;;;24.98;5.13;;;;;;;8.80;67.57;98279.28;2618088;54;20038;-64
2022/02/18 05:51:49;;;;;;;22.02;4.13;;;;;;;8.80;68.03;98271.38;2617342;54;20034;-62
2022/02/18 05:54:19;;;;;;;25.33;4.40;;;;;;;8.80;68.07;98255.56;2617980;54;20037;-65
2022/02/18 05:56:52;;;;;;;18.52;4.50;;;;;;;8.82;68.52;98243.03;2617863;54;20122;-64
2022/02/18 05:59:22;;;;;;;20.50;5.10;;;;;;;8.82;68.90;98247.50;2618223;39;20422;-64
2022/02/18 06:01:52;;;;;;;21.60;5.07;;;;;;;8.79;68.99;98238.13;2618178;54;20042;-65
2022/02/18 06:04:21;;;;;;;16.35;4.75;;;;;;;8.81;69.39;98238.75;2619211;39;20422;-64
2022/02/18 06:06:51;;;;;;;18.73;4.82;;;;;;;8.81;69.50;98230.84;2618882;54;20034;-64
2022/02/18 06:09:20;;;;;;;23.30;5.13;;;;;;;8.82;69.20;98229.84;2622430;54;20035;-65
2022/02/18 06:11:52;;;;;;;23.02;4.18;;;;;;;8.79;70.06;98230.22;2621970;39;20462;-66
2022/02/18 06:14:22;;;;;;;18.25;4.00;;;;;;;8.77;70.26;98234.88;2622068;39;20470;-66
2022/02/18 06:16:52;;;;;;;21.08;4.32;;;;;;;8.80;70.33;98220.50;2622303;39;20434;-64
2022/02/18 06:19:24;;;;;;;14.98;4.72;;;;;;;8.81;70.33;98215.03;2621032;39;20408;-63
2022/02/18 06:21:53;;;;;;;19.20;4.22;;;;;;;8.83;70.81;98214.84;2619097;54;20089;-62
2022/02/18 06:24:23;;;;;;;23.52;5.47;;;;;;;8.84;70.55;98204.09;2618829;54;20042;-64
2022/02/18 06:26:55;;;;;;;20.60;4.40;;;;;;;8.82;70.88;98190.31;2618287;54;20038;-64
2022/02/18 06:29:24;;;;;;;22.45;5.13;;;;;;;8.78;71.78;98193.53;2618505;54;20117;-63
2022/02/18 06:31:54;;;;;;;21.60;4.82;;;;;;;8.74;72.33;98187.84;2620216;54;20549;-62
2022/02/18 06:34:25;;;;;;;22.08;4.80;;;;;;;8.71;72.26;98180.31;2622394;39;20419;-63
2022/02/18 06:36:55;;;;;;;19.27;4.93;;;;;;;8.65;73.19;98176.66;2620532;54;20054;-65
2022/02/18 06:39:25;;;;;;;25.38;4.75;;;;;;;8.70;73.52;98170.81;2619149;54;20051;-65
2022/02/18 06:41:57;;;;;;;29.40;5.07;;;;;;;8.71;73.60;98168.97;2618443;54;20078;-63
2022/02/18 06:44:27;;;;;;;23.55;5.75;;;;;;;8.69;73.84;98155.97;2618744;54;20034;-63
2022/02/18 06:46:57;;;;;;;21.85;5.65;;;;;;;8.74;74.22;98150.94;2618582;54;20049;-64
2022/02/18 06:49:27;;;;;;;24.15;6.18;;;;;;;8.78;74.66;98144.28;2618843;54;20034;-62
2022/02/18 06:51:58;;;;;;;21.75;4.85;;;;;;;8.81;74.96;98145.69;2619350;54;20027;-64
2022/02/18 06:54:28;;;;;;;18.00;5.78;;;;;;;8.79;74.88;98145.91;2619047;54;20129;-63
2022/02/18 06:57:01;;;;;;;22.05;5.05;;;;;;;8.78;75.49;98146.09;2620917;39;20415;-64
2022/02/18 06:59:32;;;;;;;26.27;5.90;;;;;;;8.72;76.12;98131.88;2619685;54;20044;-64
2022/02/18 07:02:01;;;;;;;17.48;5.15;;;;;;;8.72;76.52;98129.25;2618439;54;20542;-63
2022/02/18 07:04:31;;;;;;;15.38;4.57;;;;;;;8.76;76.86;98112.03;2618131;54;20027;-63
2022/02/18 07:07:01;;;;;;;19.17;5.80;;;;;;;8.78;76.78;98107.38;2618027;47;20027;-63
2022/02/18 07:09:30;;;;;;;16.17;5.63;;;;;;;8.78;77.71;98107.38;2618630;54;20061;-64
2022/02/18 07:12:02;;;;;;;14.43;4.78;;;;;;;8.84;77.82;98108.41;2619548;31;20572;-64
2022/02/18 07:14:32;;;;;;;16.42;5.13;;;;;;;8.84;78.17;98105.78;2618411;54;20038;-65
2022/02/18 07:17:07;;;;;;;17.30;4.93;;;;;;;8.80;78.46;98094.81;2618924;54;20067;-64
2022/02/18 07:19:37;;;;;;;14.18;4.35;;;;;;;8.83;78.81;98093.63;2618773;54;20039;-63
2022/02/18 07:22:07;;;;;;;10.80;4.55;;;;;;;8.80;79.61;98089.53;2618078;47;20043;-65
2022/02/18 07:24:37;;;;;;;9.82;4.70;;;;;;;8.81;80.28;98091.16;2618439;54;20046;-64
2022/02/18 07:27:09;;;;;;;9.65;3.80;;;;;;;8.83;80.83;98075.97;2618469;54;20294;-64
2022/02/18 07:29:39;;;;;;;14.02;6.00;;;;;;;8.82;81.33;98078.81;2619256;39;20438;-64
2022/02/18 07:32:09;;;;;;;10.23;4.55;;;;;;;8.88;81.59;98059.56;2618775;54;20034;-63
2022/02/18 07:34:39;;;;;;;10.95;5.68;;;;;;;8.91;81.68;98064.44;2618236;54;20035;-63
2022/02/18 07:37:09;;;;;;;9.10;3.53;;;;;;;8.99;81.96;98056.34;2618736;39;20592;-66
2022/02/18 07:39:39;;;;;;;6.90;3.33;;;;;;;9.03;81.58;98040.94;2618488;54;20034;-63
2022/02/18 07:42:11;;;;;;;5.15;2.78;;;;;;;9.05;82.20;98042.34;2619306;31;20502;-62
2022/02/18 07:44:41;;;;;;;8.07;3.20;;;;;;;9.07;82.72;98044.78;2617904;47;20081;-63
2022/02/18 07:47:10;;;;;;;8.45;3.53;;;;;;;9.13;82.36;98022.88;2618579;54;20034;-63
2022/02/18 07:49:51;;;;;;;7.63;3.53;;;;;;;9.23;82.77;98028.56;2618577;54;20038;-63
2022/02/18 07:52:22;;;;;;;4.70;2.45;;;;;;;9.33;82.87;98015.78;2617918;47;20542;-63
2022/02/18 07:54:52;;;;;;;6.00;2.20;;;;;;;9.40;82.99;98007.88;2617628;47;20034;-64
2022/02/18 07:57:24;;;;;;;4.03;2.03;;;;;;;9.46;82.96;98006.22;2618605;54;20038;-62
2022/02/18 07:59:54;;;;;;;4.65;2.10;;;;;;;9.49;83.08;98004.00;2618526;54;20077;-65
2022/02/18 08:02:24;;;;;;;4.95;2.30;;;;;;;9.53;83.56;97994.66;2618813;54;20038;-63
2022/02/18 08:04:54;;;;;;;3.92;2.30;;;;;;;9.58;83.47;98004.59;2619243;54;20041;-65
2022/02/18 08:07:23;;;;;;;5.00;2.00;;;;;;;9.60;83.93;97992.84;2619636;54;20542;-61
2022/02/18 08:09:53;;;;;;;3.58;1.80;;;;;;;9.64;84.17;97995.88;2620067;39;20434;-63
2022/02/18 08:12:25;;;;;;;3.20;1.80;;;;;;;9.73;83.93;97999.09;2618802;54;20129;-63
2022/02/18 08:14:55;;;;;;;3.95;2.03;;;;;;;9.81;83.78;97983.03;2618456;54;20033;-63
2022/02/18 08:17:25;;;;;;;4.50;2.10;;;;;;;9.85;84.16;97992.97;2619274;54;20037;-64
2022/02/18 08:19:58;;;;;;;5.45;2.72;;;;;;;9.98;83.67;97980.75;2619028;54;20085;-63
2022/02/18 08:22:28;;;;;;;3.20;2.15;;;;;;;10.02;84.32;97977.47;2618989;54;20057;-64
2022/02/18 08:24:57;;;;;;;6.07;2.58;;;;;;;10.07;84.21;97966.28;2619773;39;20618;-64
2022/02/18 08:27:30;;;;;;;5.30;2.00;;;;;;;10.11;83.76;97965.66;2619302;54;20061;-63
2022/02/18 08:30:00;;;;;;;3.80;2.00;;;;;;;10.21;84.17;97964.41;2619659;54;20034;-64
2022/02/18 08:32:29;;;;;;;3.78;1.98;;;;;;;10.31;83.90;97965.59;2620984;54;20061;-64
2022/02/18 08:35:03;;;;;;;7.72;2.50;;;;;;;10.34;84.06;97959.09;2620394;47;20042;-64
2022/02/18 08:37:33;;;;;;;4.18;2.22;;;;;;;10.42;83.60;97953.56;2620975;39;20442;-63
2022/02/18 08:40:03;;;;;;;5.20;2.13;;;;;;;10.52;83.49;97942.50;2621355;54;20069;-63
2022/02/18 08:42:35;;;;;;;5.90;2.92;;;;;;;10.63;83.30;97958.50;2620493;54;20059;-64
2022/02/18 08:45:08;;;;;;;3.03;1.70;;;;;;;10.73;83.31;97949.28;2619039;49;20019;-63
2022/02/18 08:47:38;;;;;;;4.75;2.38;;;;;;;10.86;82.78;97942.09;2620971;54;20031;-63
2022/02/18 08:50:09;;;;;;;4.22;2.00;;;;;;;10.90;82.34;97940.63;2620740;54;20042;-64
2022/02/18 08:52:40;;;;;;;2.85;1.52;;;;;;;10.97;82.34;97945.03;2622360;54;20050;-63
2022/02/18 08:55:11;;;;;;;6.47;2.50;;;;;;;10.99;81.93;97935.88;2622291;54;20034;-64
2022/02/18 08:57:46;;;;;;;1.83;1.65;;;;;;;11.06;81.55;97933.16;2621258;54;20562;-63
2022/02/18 09:00:19;;;;;;;6.25;2.83;;;;;;;11.09;81.74;97936.19;2623585;54;20037;-64
2022/02/18 09:02:49;;;;;;;4.53;2.28;;;;;;;11.22;81.22;97929.97;2622185;54;20034;-64
2022/02/18 09:05:19;;;;;;;3.67;2.00;;;;;;;11.30;81.05;97929.69;2623193;54;20037;-62
2022/02/18 09:07:49;;;;;;;7.32;3.05;;;;;;;11.28;81.12;97930.94;2622938;54;20031;-63
2022/02/18 09:10:19;;;;;;;3.47;1.85;;;;;;;11.33;80.94;97939.03;2620821;54;20030;-64
2022/02/18 09:12:51;;;;;;;4.22;1.55;;;;;;;11.32;80.49;97935.59;2623360;39;20469;-63
2022/02/18 09:15:20;;;;;;;2.60;1.05;;;;;;;11.36;79.87;97920.06;2624793;54;20577;-63
2022/02/18 09:18:02;;;;;;;3.55;1.48;;;;;;;11.40;80.26;97916.78;2619664;47;20150;-63
2022/02/18 09:20:33;;;;;;;1.70;1.55;;;;;;;11.46;79.70;97911.63;2619787;54;20042;-62
2022/02/18 09:23:02;;;;;;;2.55;1.42;;;;;;;11.55;80.17;97903.19;2621697;54;20038;-62
2022/02/18 09:25:32;;;;;;;4.70;1.85;;;;;;;11.64;79.61;97901.06;2618824;54;20027;-63
2022/02/18 09:28:04;;;;;;;1.77;1.35;;;;;;;11.68;79.53;97891.63;2621997;54;20034;-63
2022/02/18 09:30:37;;;;;;;3.80;1.48;;;;;;;11.69;78.97;97898.53;2620951;54;20026;-63
2022/02/18 09:33:18;;;;;;;3.72;1.40;;;;;;;11.75;78.53;97900.28;2618908;54;20035;-62
2022/02/18 09:35:49;;;;;;;4.22;1.83;;;;;;;11.81;78.50;97886.19;2618180;54;20023;-64
2022/02/18 09:38:19;;;;;;;3.42;1.20;;;;;;;11.86;77.64;97882.88;2619806;54;20105;-64
2022/02/18 09:40:49;;;;;;;3.10;1.10;;;;;;;12.00;77.43;97871.09;2620989;47;20034;-64
2022/02/18 09:43:25;;;;;;;3.75;2.17;;;;;;;12.11;77.56;97861.56;2620396;54;20042;-66
2022/02/18 09:45:56;;;;;;;3.40;2.22;;;;;;;12.14;77.19;97861.94;2620156;54;20122;-63
2022/02/18 09:48:27;;;;;;;4.60;2.30;;;;;;;12.28;76.80;97859.09;2619449;54;20035;-63
2022/02/18 09:50:58;;;;;;;2.30;1.20;;;;;;;12.29;76.20;97866.03;2620030;54;20554;-63
2022/02/18 09:53:28;;;;;;;2.95;1.20;;;;;;;12.34;76.65;97848.41;2619000;54;20069;-64
2022/02/18 09:55:59;;;;;;;3.22;1.35;;;;;;;12.37;76.26;97860.41;2619973;39;20086;-64
2022/02/18 09:58:31;;;;;;;2.00;1.33;;;;;;;12.40;75.17;97839.53;2620697;54;20030;-64
2022/02/18 10:01:01;;;;;;;1.02;0.82;;;;;;;12.54;74.86;97837.50;2623380;54;20732;-64
2022/02/18 10:03:31;;;;;;;4.07;1.02;;;;;;;12.60;74.44;97843.72;2625059;54;20022;-63
2022/02/18 10:06:00;;;;;;;3.05;1.15;;;;;;;12.51;74.39;97831.84;2626520;54;20023;-64
2022/02/18 10:08:31;;;;;;;1.58;0.80;;;;;;;12.53;74.05;97830.59;2625718;54;20031;-65
2022/02/18 10:11:04;;;;;;;0.80;0.80;;;;;;;12.55;74.27;97823.19;2625598;54;20038;-64
2022/02/18 10:13:41;;;;;;;1.98;1.00;;;;;;;12.55;73.95;97815.25;2624187;54;20033;-62
2022/02/18 10:16:16;;;;;;;1.55;0.82;;;;;;;12.68;74.21;97824.00;2623612;54;20026;-62
2022/02/18 10:18:52;;;;;;;1.05;0.70;;;;;;;12.57;74.57;97810.53;2624084;54;20038;-65
2022/02/18 10:21:23;;;;;;;3.25;1.30;;;;;;;12.54;74.55;97796.94;2623659;54;20038;-65
2022/02/18 10:23:55;;;;;;;1.38;0.95;;;;;;;12.57;74.38;97818.50;2624014;54;20054;-70
2022/02/18 10:26:39;;;;;;;2.88;0.95;;;;;;;12.56;74.16;97803.59;2623756;47;20023;-63
2022/02/18 10:29:19;;;;;;;1.23;0.90;;;;;;;12.46;73.72;97797.25;2623536;49;20035;-64
2022/02/18 10:32:09;;;;;;;1.65;0.75;;;;;;;12.49;74.40;97788.84;2623448;54;20065;-64
2022/02/18 10:34:53;;;;;;;1.27;0.88;;;;;;;12.56;74.00;97802.78;2622946;51;20026;-63
2022/02/18 10:37:23;;;;;;;4.35;1.23;;;;;;;12.44;74.64;97804.63;2624244;54;20062;-62
2022/02/18 10:40:05;;;;;;;2.22;1.63;;;;;;;12.36;75.62;97779.25;2623529;54;20034;-63
2022/02/18 10:42:35;;;;;;;1.63;1.02;;;;;;;12.35;75.63;97788.25;2623341;54;20038;-64
2022/02/18 10:45:16;;;;;;;2.25;1.00;;;;;;;12.44;74.87;97770.16;2622976;54;20042;-64
2022/02/18 10:47:48;;;;;;;1.90;1.00;;;;;;;12.53;74.20;97774.91;2623684;54;20022;-64
2022/02/18 10:50:21;;;;;;;0.77;0.75;;;;;;;12.58;73.46;97761.78;2623917;54;20022;-64
2022/02/18 10:53:12;;;;;;;1.15;0.60;;;;;;;12.72;72.94;97767.63;2623835;54;20568;-64
2022/02/18 10:55:56;;;;;;;1.85;1.00;;;;;;;12.75;72.60;97740.66;2623309;54;20061;-65
2022/02/18 10:58:27;;;;;;;1.63;1.23;;;;;;;12.83;71.47;97731.53;2623330;54;20030;-63
2022/02/18 11:01:13;;;;;;;2.25;1.38;;;;;;;12.88;71.28;97739.59;2622458;54;20053;-65
2022/02/18 11:03:45;;;;;;;1.52;1.00;;;;;;;13.04;70.12;97727.47;2623307;54;20050;-64
2022/02/18 11:06:25;;;;;;;2.53;1.55;;;;;;;13.11;69.43;97728.16;2623000;54;20545;-65
2022/02/18 11:09:00;;;;;;;1.52;0.90;;;;;;;13.18;68.36;97731.44;2624201;39;20437;-64
2022/02/18 11:11:33;;;;;;;1.73;1.48;;;;;;;13.16;68.09;97716.81;2623568;39;20286;-61
2022/02/18 11:14:03;;;;;;;;;;;;;;;13.09;68.25;97711.66;2621788;47;20038;-62
2022/02/18 11:16:37;;;;;;;4.63;1.27;;;;;;;13.11;68.52;97704.28;2622815;54;19991;-61
2022/02/18 11:19:07;;;;;;;1.67;1.10;;;;;;;13.10;68.60;97703.47;2621659;39;20456;-61
2022/02/18 11:21:41;;;;;;;2.15;1.50;;;;;;;13.11;67.54;97704.28;2621624;39;20800;-62
2022/02/18 11:24:21;;;;;;;3.90;0.98;;;;;;;13.04;68.24;97685.03;2620315;54;20038;-63
2022/02/18 11:26:51;;;;;;;2.10;1.08;;;;;;;13.03;67.95;97683.41;2621429;54;20043;-63
2022/02/18 11:29:25;;;;;;;2.17;0.90;;;;;;;12.99;68.15;97683.06;2620792;47;20129;-62
2022/02/18 11:32:03;;;;;;;2.08;1.13;;;;;;;12.97;68.11;97673.72;2620588;54;20031;-66
2022/02/18 11:34:58;;;;;;;2.58;0.90;;;;;;;12.91;68.41;97680.00;2621044;54;20026;-62
2022/02/18 11:37:59;;;;;;;1.25;0.85;;;;;;;12.83;68.43;97679.31;2621035;47;20034;-68
2022/02/18 11:40:44;;;;;;;2.67;1.80;;;;;;;12.79;68.70;97682.66;2621292;54;20043;-66
2022/02/18 11:43:26;;;;;;;4.00;1.77;;;;;;;12.68;68.38;97668.38;2622045;54;20069;-64
2022/02/18 11:45:58;;;;;;;1.50;1.27;;;;;;;12.58;68.71;97661.03;2622212;47;20038;-65
2022/02/18 11:48:45;;;;;;;5.22;2.25;;;;;;;12.49;69.27;97670.38;2622198;54;20037;-64
2022/02/18 11:51:21;;;;;;;4.85;2.33;;;;;;;12.50;69.62;97661.38;2623136;54;20033;-64
2022/02/18 11:53:52;;;;;;;2.53;1.97;;;;;;;12.42;69.49;97663.59;2622599;47;20034;-65
2022/02/18 11:56:41;;;;;;;1.10;0.90;;;;;;;12.37;69.72;97665.09;2623521;54;20322;-66
2022/02/18 11:59:12;;;;;;;1.50;1.00;;;;;;;12.35;70.01;97666.34;2623193;54;20046;-64